Nearby METAR Reports

 

EGVN - Brize Norton Raf, United Kingdom
Distance from station: SSE 20mi, 32km
Updated: 21/07/2018 02:50
Mostly cloudy
Mostly cloudy
 Wind from NNE
Wind: NNE 2 mph , 4 km/h
Temperature: 15°C
Dew Point: 14°C
Humidity: 94%
Barometer: 1013 hPa
Clouds: Mostly cloudy
Visibility: 6 miles , 10 km
Cloud details: Partly cloudy 671 m
Mostly cloudy 3048 m
2018/07/21 01:50 EGVN 210150Z 02002KT 9999 SCT022 BKN100 15/14 Q1013 NOSIG
EGTK - Oxford, United Kingdom
Distance from station: SE 22mi, 35km
Updated: 20/07/2018 22:20
NOT Current
Light drizzle, Mostly cloudy
Light drizzle, Mostly cloudy
 Wind from varies
Wind: varies 3 mph , 6 km/h
Temperature: 15°C
Dew Point: 14°C
Humidity: 94%
Barometer: 1013 hPa
Summary: Light Drizzle
Clouds: Mostly cloudy
Visibility: 6 miles , 10 km
Cloud details: Mostly cloudy 1097 m
2018/07/20 21:20 EGTK 202120Z VRB03KT 9999 -DZ BKN036 15/14 Q1013
 
EGBJ - Staverton (priva, United Kingdom
Distance from station: WSW 23mi, 36km
Updated: 20/07/2018 19:20
NOT Current
Light rain, Showers, Partly cloudy
Light rain, Showers, Partly cloudy
 Wind from N
Wind: N 6 mph , 9 km/h
Temperature: 17°C
Dew Point: 15°C
Humidity: 88%
Barometer: 1013 hPa
Summary: Light rain, Showers
Clouds: Partly cloudy
Visibility: 6 miles , 10 km
Cloud details: Few Clouds 274 m
Partly cloudy 914 m
2018/07/20 18:20 EGBJ 201820Z 01005KT 9999 -SHRA FEW009 SCT030 17/15 Q1013
EGVA - Fairford Raf, United Kingdom
Distance from station: S 27mi, 43km
Updated: 21/07/2018 02:56
Mostly cloudy
Mostly cloudy
 Wind from calm
Wind: Calm
Temperature: 15°C
Dew Point: 13°C
Humidity: 88%
Barometer: 1012.9 hPa
Clouds: Mostly cloudy
Visibility: 6 miles , 10 km
Cloud details: Partly cloudy 701 m
Mostly cloudy 3353 m
2018/07/21 01:56 EGVA 210156Z AUTO 00000KT 9999 SCT023 BKN110 15/13 A2991 RMK AO2 VIS 0400 RWY09 SLP129 T01520130
 
EGBB - Birmingham Airpo, United Kingdom
Distance from station: N 29mi, 46km
Updated: 21/07/2018 02:50
Clear
Clear
 Wind from S
Wind: S 3 mph , 6 km/h
Temperature: 13°C
Dew Point: 12°C
Humidity: 94%
Barometer: 1013 hPa
Summary: Clear
Visibility: greater than 7 miles , 10 km
2018/07/21 01:50 EGBB 210150Z 18003KT CAVOK 13/12 Q1013
EGUB - Benson Raf, United Kingdom
Distance from station: SE 40mi, 65km
Updated: 21/07/2018 01:50
Overcast
Overcast
 Wind from NNW
Wind: NNW 1 mph , 2 km/h
Temperature: 15°C
Dew Point: 15°C
Humidity: 100%
Barometer: 1013 hPa
Clouds: Overcast
Visibility: 4 miles , 6 km
Cloud details: Overcast 2743 m
2018/07/21 00:50 EGUB 210050Z AUTO 34001KT 6000 // OVC090/// 15/15 Q1013
 
EGTC - Cranfield, United Kingdom
Distance from station: E 46mi, 74km
Updated: 20/07/2018 17:50
NOT Current
Few Clouds
Few Clouds
 Wind from SSE
Wind: SSE 13 mph , 20 km/h
Temperature: 23°C
Dew Point: 14°C
Humidity: 57%
Barometer: 1012 hPa
Clouds: Few Clouds
Visibility: 6 miles , 10 km
Cloud details: Few Clouds 1372 m
2018/07/20 16:50 EGTC 201650Z 16011KT 9999 FEW045 23/14 Q1012
EGWC - Cosford Raf, United Kingdom
Distance from station: NNW 46mi, 75km
Updated: 20/07/2018 15:50
NOT Current
Light rain, Showers, Mostly cloudy
Light rain, Showers, Mostly cloudy
 Wind from NW
Wind: NW 10 mph , 17 km/h
Temperature: 20°C
Dew Point: 13°C
Humidity: 64%
Barometer: 1014 hPa
Summary: Light rain, Showers
Clouds: Mostly cloudy
Visibility: 6 miles , 10 km
Cloud details: Mostly cloudy 1829 m
2018/07/20 14:50 EGWC 201450Z 31009KT 9999 -SHRA BKN060 20/13 Q1014 BLU